Time;durP1;ratioP1;P1;durP2;ratioP2;P2;SDS_P1;SDS_P2;PMS_P1;PMS_P2;Temp;Humidity;BMP_temperature;BMP_pressure;BME280_temperature;BME280_humidity;BME280_pressure;Samples;Min_cycle;Max_cycle;Signal;HPM_P1;HPM_P2
2022/08/08 00:02:11;;;;;;;1.67;0.50;;;;;;;27.31;39.12;101362.84;4805242;29;20045;-52
2022/08/08 00:04:48;;;;;;;5.57;0.57;;;;;;;27.32;38.40;101363.69;4805386;29;20397;-52
2022/08/08 00:07:46;;;;;;;1.15;0.52;;;;;;;27.39;38.58;101358.59;4805484;29;20026;-52
2022/08/08 00:10:43;;;;;;;1.20;0.50;;;;;;;27.42;38.69;101368.97;4805866;29;20114;-53
2022/08/08 00:13:30;;;;;;;2.35;0.80;;;;;;;26.51;39.74;101355.00;4801145;29;20046;-52
2022/08/08 00:16:06;;;;;;;0.40;0.40;;;;;;;26.65;39.85;101353.13;4805461;29;20030;-52
2022/08/08 00:19:00;;;;;;;1.45;0.30;;;;;;;26.44;40.26;101349.91;4805021;29;20027;-51
2022/08/08 00:21:32;;;;;;;4.55;0.77;;;;;;;26.35;40.34;101356.34;4805068;29;20038;-52
2022/08/08 00:24:03;;;;;;;1.55;0.57;;;;;;;26.52;40.64;101351.94;4805325;29;20035;-51
2022/08/08 00:26:37;;;;;;;0.40;0.40;;;;;;;26.53;39.94;101348.09;4805626;29;20035;-52
2022/08/08 00:29:48;;;;;;;0.60;0.50;;;;;;;26.39;40.61;101346.41;4805130;29;20552;-52
2022/08/08 00:32:42;;;;;;;2.70;0.40;;;;;;;25.71;40.78;101348.50;4799346;29;20508;-52
2022/08/08 00:35:24;;;;;;;1.30;0.60;;;;;;;26.10;41.85;101352.91;4805148;29;20472;-51
2022/08/08 00:38:08;;;;;;;1.95;0.50;;;;;;;25.66;41.06;101342.28;4804821;29;20042;-51
2022/08/08 00:40:55;;;;;;;4.20;0.60;;;;;;;25.85;41.37;101348.59;4805045;29;20524;-52
2022/08/08 00:43:51;;;;;;;2.45;0.60;;;;;;;25.86;40.70;101350.22;4805003;29;20088;-50
2022/08/08 00:46:35;;;;;;;0.70;0.55;;;;;;;25.48;41.91;101344.66;4804862;29;20054;-51
2022/08/08 00:49:07;;;;;;;2.97;0.73;;;;;;;25.65;41.80;101343.34;4804750;29;20105;-52
2022/08/08 00:52:12;;;;;;;1.27;0.45;;;;;;;25.63;41.17;101337.38;4804863;29;20043;-53
2022/08/08 00:54:51;;;;;;;1.05;0.40;;;;;;;25.37;41.75;101342.34;4748776;30;20043;-52
2022/08/08 00:58:07;;;;;;;1.00;0.45;;;;;;;25.61;41.20;101343.16;4800233;29;20061;-50
2022/08/08 01:00:52;;;;;;;0.60;0.30;;;;;;;25.29;41.79;101341.09;4804695;29;20113;-51
2022/08/08 01:04:09;;;;;;;2.50;0.50;;;;;;;24.66;42.76;101335.72;4804831;29;20031;-52
2022/08/08 01:06:41;;;;;;;0.77;0.50;;;;;;;24.64;42.62;101332.44;4804472;29;20038;-52
2022/08/08 01:09:22;;;;;;;0.85;0.47;;;;;;;24.57;44.14;101335.53;4804447;29;20152;-51
2022/08/08 01:12:22;;;;;;;0.68;0.50;;;;;;;24.62;43.90;101331.94;4804845;29;20039;-52
2022/08/08 01:15:06;;;;;;;2.92;0.55;;;;;;;24.42;44.62;101328.25;4804860;29;20441;-51
2022/08/08 01:17:46;;;;;;;0.52;0.50;;;;;;;24.65;45.94;101325.88;4804257;29;20106;-52
2022/08/08 01:20:24;;;;;;;2.35;0.70;;;;;;;24.69;45.68;101329.66;4804738;29;20029;-51
2022/08/08 01:23:27;;;;;;;2.08;0.60;;;;;;;24.88;44.87;101319.63;4804808;29;20492;-52
2022/08/08 01:26:11;;;;;;;0.38;0.38;;;;;;;24.81;44.88;101327.34;4804550;29;20054;-51
2022/08/08 01:29:14;;;;;;;1.80;0.90;;;;;;;25.02;44.58;101320.53;4804523;29;20064;-49
2022/08/08 01:32:17;;;;;;;1.08;0.50;;;;;;;25.12;44.08;101319.66;4805206;29;20034;-52
2022/08/08 01:34:54;;;;;;;1.30;0.47;;;;;;;25.30;43.85;101323.53;4804718;29;20088;-51
2022/08/08 01:38:17;;;;;;;1.05;0.50;;;;;;;25.45;44.02;101320.59;4804421;29;20037;-52
2022/08/08 01:41:12;;;;;;;0.55;0.40;;;;;;;25.42;43.09;101321.19;4731262;30;20040;-51
2022/08/08 01:43:48;;;;;;;;;;;;;;;25.65;43.14;101321.44;4731436;30;20074;-52
2022/08/08 01:46:36;;;;;;;0.70;0.50;;;;;;;25.61;43.43;101321.22;4784833;29;19971;-50
2022/08/08 01:49:08;;;;;;;1.85;0.40;;;;;;;25.61;43.68;101321.22;4804360;29;20038;-49
2022/08/08 01:51:34;;;;;;;0.73;0.43;;;;;;;25.74;43.31;101315.03;4804267;29;20062;-51
2022/08/08 01:54:15;;;;;;;1.23;0.60;;;;;;;25.72;43.00;101310.94;4804377;29;20131;-48
2022/08/08 01:57:06;;;;;;;0.80;0.50;;;;;;;25.78;42.88;101320.75;4804441;29;20031;-48
2022/08/08 01:59:50;;;;;;;1.45;0.52;;;;;;;25.38;43.92;101328.38;4803938;29;20535;-47
2022/08/08 02:02:54;;;;;;;6.32;0.47;;;;;;;25.21;44.38;101325.31;4804132;29;20050;-48
2022/08/08 02:05:37;;;;;;;1.25;0.63;;;;;;;25.12;44.46;101324.31;4804145;29;20039;-52
2022/08/08 02:08:36;;;;;;;3.10;0.70;;;;;;;24.88;44.98;101322.38;4804160;29;20042;-52
2022/08/08 02:11:45;;;;;;;1.05;0.60;;;;;;;24.99;44.48;101332.09;4788146;29;20497;-52
2022/08/08 02:14:39;;;;;;;1.17;0.70;;;;;;;24.77;44.76;101326.31;4796802;29;20051;-53
2022/08/08 02:17:29;;;;;;;4.53;0.70;;;;;;;24.16;46.00;101335.03;4805793;29;20067;-52
2022/08/08 02:20:09;;;;;;;1.05;0.57;;;;;;;24.27;46.41;101338.50;4807257;29;20026;-51
2022/08/08 02:22:57;;;;;;;1.27;0.70;;;;;;;24.42;45.81;101339.22;4807557;29;20552;-52
2022/08/08 02:25:51;;;;;;;3.60;0.75;;;;;;;24.24;46.10;101339.88;4807074;29;20087;-51
2022/08/08 02:28:43;;;;;;;1.15;0.50;;;;;;;24.14;46.46;101337.22;4806874;29;20035;-52
2022/08/08 02:31:13;;;;;;;2.80;0.70;;;;;;;24.32;46.07;101341.19;4807189;29;20047;-52
2022/08/08 02:34:24;;;;;;;2.15;0.63;;;;;;;24.74;45.12;101337.84;4807210;29;20080;-52
2022/08/08 02:36:58;;;;;;;2.35;0.60;;;;;;;24.75;45.08;101336.72;4792160;29;20042;-51
2022/08/08 02:39:24;;;;;;;;;;;;;;;24.33;45.98;101337.38;4807670;29;20043;-52
2022/08/08 02:42:18;;;;;;;2.03;0.60;;;;;;;24.43;45.98;101335.38;4806995;29;19981;-52
2022/08/08 02:45:12;;;;;;;0.80;0.50;;;;;;;24.45;46.00;101338.66;4807427;29;20080;-52
2022/08/08 02:48:15;;;;;;;0.98;0.50;;;;;;;24.10;46.57;101341.66;4806615;29;20549;-52
2022/08/08 02:51:07;;;;;;;2.83;0.68;;;;;;;23.91;46.81;101345.03;4807298;29;20034;-52
2022/08/08 02:53:49;;;;;;;1.65;0.60;;;;;;;23.89;47.29;101347.25;4797187;29;20095;-52
2022/08/08 02:56:39;;;;;;;2.95;0.60;;;;;;;23.50;47.63;101347.16;4806637;29;20070;-52
2022/08/08 02:59:59;;;;;;;0.90;0.55;;;;;;;23.36;48.02;101344.19;4807060;29;20058;-53
2022/08/08 03:02:57;;;;;;;1.73;0.68;;;;;;;23.48;47.64;101345.78;4750939;30;20039;-52
2022/08/08 03:05:47;;;;;;;0.90;0.40;;;;;;;23.15;48.59;101353.53;4797982;29;20131;-49
2022/08/08 03:08:59;;;;;;;0.77;0.50;;;;;;;22.95;48.91;101357.16;4806506;29;20031;-53
2022/08/08 03:11:55;;;;;;;1.33;0.65;;;;;;;22.83;49.08;101364.78;4805955;29;20035;-52
2022/08/08 03:14:50;;;;;;;1.50;0.70;;;;;;;22.88;49.26;101362.09;4794577;29;20552;-51
2022/08/08 03:17:26;;;;;;;2.17;0.88;;;;;;;22.55;50.30;101372.47;4805889;29;20046;-51
2022/08/08 03:20:07;;;;;;;1.98;0.98;;;;;;;22.53;50.10;101368.34;4806560;29;20497;-52
2022/08/08 03:22:44;;;;;;;1.40;0.63;;;;;;;22.52;50.46;101367.53;4806407;29;20038;-51
2022/08/08 03:25:12;;;;;;;1.42;0.68;;;;;;;22.47;50.46;101374.91;4806040;29;20050;-51
2022/08/08 03:27:44;;;;;;;1.88;0.90;;;;;;;22.34;50.78;101374.34;4805400;29;20053;-51
2022/08/08 03:30:12;;;;;;;1.52;0.70;;;;;;;22.29;50.75;101374.34;4806622;29;20043;-52
2022/08/08 03:35:26;;;;;;;2.28;0.68;;;;;;;22.33;50.74;101380.91;4823439;24;20523;-52
2022/08/08 03:37:53;;;;;;;1.60;0.95;;;;;;;22.12;51.10;101382.78;4842291;29;20090;-51
2022/08/08 03:40:21;;;;;;;2.42;0.98;;;;;;;22.12;50.85;101380.06;4842521;29;20498;-51
2022/08/08 03:42:48;;;;;;;1.88;0.80;;;;;;;21.99;51.13;101382.47;4840862;29;20029;-52
2022/08/08 03:45:17;;;;;;;1.25;0.85;;;;;;;22.02;51.24;101384.63;4841399;29;20109;-51
2022/08/08 03:47:43;;;;;;;4.38;0.90;;;;;;;21.96;51.33;101391.16;4840806;29;20034;-52
2022/08/08 03:50:19;;;;;;;1.38;0.85;;;;;;;21.71;51.59;101384.56;4841310;29;20049;-50
2022/08/08 03:52:46;;;;;;;1.20;0.93;;;;;;;21.70;51.63;101385.63;4841178;29;20026;-52
2022/08/08 03:55:14;;;;;;;3.35;1.02;;;;;;;21.54;52.50;101392.09;4840813;29;20025;-51
2022/08/08 03:57:49;;;;;;;1.52;0.75;;;;;;;21.48;52.42;101388.53;4840800;29;20029;-52
2022/08/08 04:00:17;;;;;;;2.83;1.20;;;;;;;21.30;52.91;101397.16;4834487;29;20037;-52
2022/08/08 04:02:52;;;;;;;2.38;1.00;;;;;;;21.37;52.57;101399.63;4840669;29;20030;-51
2022/08/08 04:05:19;;;;;;;1.42;0.90;;;;;;;21.08;52.31;101402.72;4842604;29;20109;-52
2022/08/08 04:07:46;;;;;;;2.90;1.10;;;;;;;20.88;52.50;101402.59;4841913;29;20535;-52
2022/08/08 04:10:12;;;;;;;2.38;1.08;;;;;;;20.89;52.55;101398.78;4842118;29;20030;-51
2022/08/08 04:12:40;;;;;;;1.58;1.15;;;;;;;20.81;52.78;101408.22;4842254;29;20030;-52
2022/08/08 04:15:06;;;;;;;2.17;0.82;;;;;;;20.76;52.92;101413.63;4825565;29;20045;-52
2022/08/08 04:17:33;;;;;;;1.40;0.93;;;;;;;20.70;53.00;101406.50;4841405;29;20030;-51
2022/08/08 04:19:59;;;;;;;2.72;0.93;;;;;;;20.71;53.12;101411.72;4841940;29;20033;-51
2022/08/08 04:22:27;;;;;;;2.35;1.10;;;;;;;20.81;52.88;101410.94;4841795;29;20034;-52
2022/08/08 04:24:54;;;;;;;4.40;1.10;;;;;;;20.79;53.21;101413.13;4841953;29;20098;-50
2022/08/08 04:27:20;;;;;;;1.27;0.77;;;;;;;20.78;54.06;101431.34;4841238;29;20109;-51
2022/08/08 04:29:46;;;;;;;1.30;0.80;;;;;;;20.74;54.35;101419.34;4842058;29;20060;-52
2022/08/08 04:32:15;;;;;;;2.28;1.17;;;;;;;20.80;54.32;101426.47;4841575;29;20502;-51
2022/08/08 04:34:42;;;;;;;1.48;1.00;;;;;;;20.62;54.43;101424.13;4835391;29;20060;-51
2022/08/08 04:37:08;;;;;;;1.45;0.80;;;;;;;20.40;54.57;101429.63;4823084;29;20047;-51
2022/08/08 04:39:34;;;;;;;2.05;0.90;;;;;;;20.53;53.63;101428.41;4822405;29;20134;-51
2022/08/08 04:42:01;;;;;;;1.00;0.88;;;;;;;20.62;53.72;101432.28;4823138;29;20062;-51
2022/08/08 04:44:27;;;;;;;3.92;2.00;;;;;;;20.50;53.41;101431.66;4823411;29;20083;-52
2022/08/08 04:46:54;;;;;;;3.38;2.13;;;;;;;20.47;54.10;101430.25;4823007;29;20113;-51
2022/08/08 04:49:20;;;;;;;2.25;1.60;;;;;;;20.48;53.89;101434.59;4823369;29;20037;-51
2022/08/08 04:51:46;;;;;;;1.70;1.30;;;;;;;20.39;54.07;101438.03;4823132;29;20113;-51
2022/08/08 04:54:12;;;;;;;3.45;1.15;;;;;;;20.47;53.92;101443.03;4823157;29;20026;-50
2022/08/08 04:56:38;;;;;;;1.85;1.08;;;;;;;20.21;54.91;101448.19;4812803;29;20041;-49
2022/08/08 04:59:05;;;;;;;2.90;1.10;;;;;;;20.09;54.87;101444.78;4813066;29;20035;-51
2022/08/08 05:01:31;;;;;;;2.00;1.20;;;;;;;20.17;54.87;101447.06;4806002;29;20038;-48
2022/08/08 05:03:57;;;;;;;2.88;1.20;;;;;;;20.15;55.21;101448.38;4819817;29;20030;-51
2022/08/08 05:06:24;;;;;;;2.65;0.98;;;;;;;20.18;55.11;101459.56;4823041;29;20190;-52
2022/08/08 05:08:51;;;;;;;1.95;1.30;;;;;;;20.19;55.33;101447.59;4812272;29;20450;-50
2022/08/08 05:11:18;;;;;;;3.10;1.73;;;;;;;20.23;55.43;101443.31;4822542;29;20373;-54
2022/08/08 05:13:44;;;;;;;5.25;1.17;;;;;;;20.07;55.74;101446.94;4823105;29;20091;-52
2022/08/08 05:16:11;;;;;;;1.70;1.05;;;;;;;20.16;55.50;101450.03;4828648;29;20042;-49
2022/08/08 05:18:37;;;;;;;1.10;1.00;;;;;;;19.98;56.12;101453.88;4822876;29;20030;-51
2022/08/08 05:21:09;;;;;;;3.17;1.27;;;;;;;19.99;56.32;101455.56;4810733;29;20473;-52
2022/08/08 05:23:35;;;;;;;4.47;1.00;;;;;;;19.90;56.23;101459.78;4804857;29;20062;-48
2022/08/08 05:26:02;;;;;;;1.30;0.90;;;;;;;19.79;56.78;101456.09;4807988;29;20046;-52
2022/08/08 05:28:28;;;;;;;1.92;1.00;;;;;;;19.68;56.73;101459.78;4822478;29;20066;-51
2022/08/08 05:30:55;;;;;;;1.55;1.00;;;;;;;19.50;57.52;101456.25;4822867;29;20034;-52
2022/08/08 05:33:21;;;;;;;2.50;1.00;;;;;;;19.57;57.41;101464.22;4822752;29;20027;-51
2022/08/08 05:35:52;;;;;;;2.15;1.25;;;;;;;19.46;57.34;101471.38;4822592;29;20069;-51
2022/08/08 05:38:19;;;;;;;2.58;1.00;;;;;;;19.28;57.99;101465.41;4822554;29;20117;-51
2022/08/08 05:40:48;;;;;;;1.23;0.88;;;;;;;19.29;57.57;101470.59;4830198;29;20042;-52
2022/08/08 05:43:24;;;;;;;1.65;0.95;;;;;;;19.35;57.74;101472.31;4827162;29;20571;-51
2022/08/08 05:45:56;;;;;;;2.05;1.10;;;;;;;19.29;58.02;101467.88;4836312;29;20075;-51
2022/08/08 05:48:23;;;;;;;2.83;1.63;;;;;;;19.02;59.09;101470.44;4821198;29;20034;-50
2022/08/08 05:50:49;;;;;;;2.67;0.90;;;;;;;18.98;59.41;101472.81;4820739;29;20598;-51
2022/08/08 05:53:26;;;;;;;4.00;1.48;;;;;;;18.78;59.80;101469.78;4825922;29;20030;-51
2022/08/08 05:55:55;;;;;;;1.85;1.25;;;;;;;18.95;59.37;101472.50;4822917;29;20034;-51
2022/08/08 05:58:27;;;;;;;2.95;1.10;;;;;;;18.92;59.28;101476.50;4818646;29;20041;-52
2022/08/08 06:01:01;;;;;;;2.60;1.10;;;;;;;18.66;59.94;101469.00;4831890;29;20492;-50
2022/08/08 06:03:30;;;;;;;2.67;1.25;;;;;;;18.75;59.55;101474.88;4824610;29;20099;-51
2022/08/08 06:06:00;;;;;;;3.55;1.20;;;;;;;18.79;59.29;101471.41;4822968;29;20132;-51
2022/08/08 06:08:36;;;;;;;2.90;1.00;;;;;;;18.77;59.17;101475.44;4835580;24;20492;-50
2022/08/08 06:11:04;;;;;;;2.90;1.40;;;;;;;18.85;59.23;101470.44;4842123;29;20038;-51
2022/08/08 06:13:30;;;;;;;2.45;1.10;;;;;;;18.66;60.21;101469.81;4842698;29;20159;-50
2022/08/08 06:15:57;;;;;;;5.75;1.23;;;;;;;18.78;59.71;101467.06;4843910;29;20501;-51
2022/08/08 06:18:25;;;;;;;2.72;1.02;;;;;;;18.75;60.23;101477.56;4840371;29;20496;-51
2022/08/08 06:20:57;;;;;;;2.80;1.20;;;;;;;18.57;60.87;101474.00;4841046;29;20060;-49
2022/08/08 06:23:25;;;;;;;2.17;1.30;;;;;;;18.64;60.32;101471.13;4842628;29;20503;-52
2022/08/08 06:26:02;;;;;;;6.72;1.38;;;;;;;18.62;60.52;101478.69;4841289;29;20081;-50
2022/08/08 06:28:30;;;;;;;1.73;1.30;;;;;;;18.52;61.07;101470.38;4842319;29;20701;-50
2022/08/08 06:31:03;;;;;;;2.50;1.20;;;;;;;18.50;61.19;101469.78;4841266;29;20034;-51
2022/08/08 06:34:07;;;;;;;2.95;1.30;;;;;;;18.53;61.03;101472.81;4843118;29;20034;-51
2022/08/08 06:36:39;;;;;;;3.80;1.25;;;;;;;18.51;61.27;101472.25;4825625;29;20050;-51
2022/08/08 06:39:10;;;;;;;3.45;1.15;;;;;;;18.80;61.65;101480.38;4842755;29;20463;-51
2022/08/08 06:41:57;;;;;;;2.08;1.20;;;;;;;18.48;62.89;101480.84;4840924;29;20501;-47
2022/08/08 06:44:25;;;;;;;2.58;1.40;;;;;;;18.59;62.33;101476.44;4842986;29;20041;-51
2022/08/08 06:46:52;;;;;;;2.28;1.17;;;;;;;18.63;62.98;101483.84;4843530;29;20112;-50
2022/08/08 06:49:19;;;;;;;2.90;1.10;;;;;;;18.57;61.99;101486.72;4830540;29;20030;-51
2022/08/08 06:51:45;;;;;;;2.63;1.02;;;;;;;18.44;61.85;101482.44;4823827;29;20102;-51
2022/08/08 06:54:12;;;;;;;1.90;1.17;;;;;;;18.34;62.13;101483.06;4824716;29;20030;-49
2022/08/08 06:56:39;;;;;;;2.88;1.50;;;;;;;18.35;62.29;101475.75;4823022;29;20034;-51
2022/08/08 06:59:06;;;;;;;3.25;1.10;;;;;;;18.42;61.77;101476.41;4823632;29;20038;-51
2022/08/08 07:01:46;;;;;;;3.47;1.30;;;;;;;18.23;62.70;101478.50;4824856;29;20499;-48
2022/08/08 07:04:25;;;;;;;2.22;1.15;;;;;;;18.22;62.82;101473.34;4822642;29;20074;-51
2022/08/08 07:06:56;;;;;;;2.30;1.00;;;;;;;18.11;63.42;101478.53;4823159;29;20030;-51
2022/08/08 07:09:41;;;;;;;3.15;1.50;;;;;;;18.03;63.58;101478.91;4824172;29;20054;-51
2022/08/08 07:12:08;;;;;;;3.03;1.27;;;;;;;17.93;64.01;101476.84;4822055;29;20049;-51
2022/08/08 07:14:57;;;;;;;1.85;1.27;;;;;;;18.04;63.56;101477.84;4824527;29;20105;-50
2022/08/08 07:17:24;;;;;;;4.22;1.20;;;;;;;18.07;63.11;101474.66;4823168;29;20031;-50
2022/08/08 07:20:09;;;;;;;2.67;1.35;;;;;;;18.24;62.96;101471.19;4823423;29;20113;-50
2022/08/08 07:22:51;;;;;;;3.25;1.42;;;;;;;18.14;63.61;101472.63;4823471;29;20062;-47
2022/08/08 07:25:20;;;;;;;3.75;1.40;;;;;;;17.96;64.39;101472.81;4824359;29;20049;-51
2022/08/08 07:27:50;;;;;;;2.20;1.27;;;;;;;18.03;64.26;101469.97;4822233;29;20050;-51
2022/08/08 07:30:16;;;;;;;3.33;1.52;;;;;;;18.10;63.88;101470.63;4823325;29;20062;-50
2022/08/08 07:32:42;;;;;;;4.03;1.30;;;;;;;18.02;64.39;101474.56;4822743;29;20030;-49
2022/08/08 07:35:10;;;;;;;2.10;1.25;;;;;;;18.11;63.73;101477.72;4805881;29;20042;-51
2022/08/08 07:37:39;;;;;;;3.30;1.63;;;;;;;18.14;63.89;101478.03;4805738;29;20115;-48
2022/08/08 07:40:07;;;;;;;2.95;1.15;;;;;;;18.22;63.94;101474.16;4822274;29;20034;-51
2022/08/08 07:42:39;;;;;;;2.30;1.38;;;;;;;18.16;64.18;101480.53;4823844;29;20037;-51
2022/08/08 07:45:06;;;;;;;2.15;1.40;;;;;;;18.15;64.02;101479.69;4823117;29;20421;-51
2022/08/08 07:47:33;;;;;;;2.70;1.23;;;;;;;18.10;64.15;101485.03;4822750;29;20034;-50
2022/08/08 07:50:01;;;;;;;2.25;1.40;;;;;;;18.09;64.07;101482.53;4823066;29;20476;-51
2022/08/08 07:52:29;;;;;;;4.13;1.52;;;;;;;18.07;64.96;101481.97;4822879;29;20095;-50
2022/08/08 07:54:56;;;;;;;5.30;1.52;;;;;;;18.08;64.81;101468.19;4823535;29;20073;-50
2022/08/08 07:57:46;;;;;;;2.95;1.33;;;;;;;17.99;64.89;101468.78;4822782;29;20460;-51
2022/08/08 08:00:15;;;;;;;2.58;1.50;;;;;;;18.12;64.34;101472.06;4823353;29;20041;-47
2022/08/08 08:02:47;;;;;;;2.08;1.30;;;;;;;17.99;65.23;101466.94;4821871;29;20206;-51
2022/08/08 08:05:27;;;;;;;3.95;1.40;;;;;;;18.11;65.16;101466.88;4808306;29;20625;-50
2022/08/08 08:08:00;;;;;;;3.10;1.50;;;;;;;18.00;64.54;101463.16;4823509;29;20519;-51
2022/08/08 08:10:29;;;;;;;2.92;1.23;;;;;;;17.84;65.43;101466.59;4822638;29;20050;-50
2022/08/08 08:13:20;;;;;;;3.15;1.45;;;;;;;17.65;66.18;101460.47;4823546;29;20109;-51
2022/08/08 08:16:00;;;;;;;3.35;1.80;;;;;;;17.59;66.95;101459.53;4822292;29;20507;-51
2022/08/08 08:18:36;;;;;;;2.85;1.48;;;;;;;17.48;67.12;101456.84;4821452;29;20125;-50
2022/08/08 08:21:03;;;;;;;2.85;1.50;;;;;;;17.46;67.55;101451.69;4822984;29;20041;-51
2022/08/08 08:23:30;;;;;;;3.90;1.40;;;;;;;17.47;67.05;101456.03;4819981;29;20022;-50
2022/08/08 08:25:56;;;;;;;3.30;1.42;;;;;;;17.36;67.73;101462.28;4822701;29;20044;-50
2022/08/08 08:28:23;;;;;;;3.50;1.95;;;;;;;17.45;67.01;101454.63;4822445;29;20052;-50
2022/08/08 08:30:49;;;;;;;3.60;1.50;;;;;;;17.28;68.10;101451.81;4822371;29;20038;-50
2022/08/08 08:33:15;;;;;;;2.80;1.27;;;;;;;17.25;68.14;101444.97;4821200;29;20041;-51
2022/08/08 08:35:41;;;;;;;3.58;1.48;;;;;;;17.19;68.36;101447.81;4823010;29;20472;-51
2022/08/08 08:38:08;;;;;;;3.30;1.70;;;;;;;17.35;67.58;101434.38;4805386;29;20094;-51
2022/08/08 08:40:34;;;;;;;5.80;1.75;;;;;;;17.51;66.90;101440.16;4822345;29;20034;-50
2022/08/08 08:43:01;;;;;;;5.43;1.67;;;;;;;17.43;66.80;101433.19;4821672;29;20476;-51
2022/08/08 08:45:28;;;;;;;3.80;1.67;;;;;;;17.36;67.33;101433.31;4821653;29;20042;-50
2022/08/08 08:47:54;;;;;;;2.78;1.33;;;;;;;17.43;66.65;101433.19;4822011;29;20065;-51
2022/08/08 08:50:27;;;;;;;1.55;1.23;;;;;;;17.49;66.70;101434.97;4822721;29;20395;-49
2022/08/08 08:52:56;;;;;;;2.50;1.63;;;;;;;17.56;65.90;101432.97;4820487;29;20458;-51
2022/08/08 08:55:24;;;;;;;2.22;1.50;;;;;;;17.56;66.15;101438.38;4822986;29;20042;-51
2022/08/08 08:57:54;;;;;;;4.40;1.67;;;;;;;17.49;66.41;101440.41;4822044;29;20030;-50
2022/08/08 09:00:21;;;;;;;5.22;1.85;;;;;;;17.45;66.88;101441.09;4822102;29;20125;-51
2022/08/08 09:02:50;;;;;;;3.75;1.45;;;;;;;17.58;66.17;101435.41;4822210;29;20054;-50
2022/08/08 09:05:20;;;;;;;4.63;1.60;;;;;;;17.49;66.32;101437.69;4822267;29;20449;-51
2022/08/08 09:07:50;;;;;;;3.53;1.40;;;;;;;17.58;66.01;101441.66;4820567;29;20038;-48
2022/08/08 09:10:18;;;;;;;3.33;1.70;;;;;;;17.68;65.95;101439.16;4822853;29;20058;-50
2022/08/08 09:12:48;;;;;;;2.47;1.52;;;;;;;17.55;66.56;101441.31;4821617;29;20030;-48
2022/08/08 09:15:15;;;;;;;2.95;1.40;;;;;;;17.53;66.78;101444.25;4822080;29;20129;-51
2022/08/08 09:17:42;;;;;;;2.03;1.40;;;;;;;17.50;66.57;101442.03;4820091;29;20069;-50
2022/08/08 09:20:10;;;;;;;3.13;1.30;;;;;;;17.52;66.51;101445.31;4822858;29;20400;-48
2022/08/08 09:22:36;;;;;;;3.78;1.65;;;;;;;17.41;67.11;101438.84;4821762;29;20034;-50
2022/08/08 09:25:05;;;;;;;3.53;1.60;;;;;;;17.37;66.69;101432.25;4821467;29;20037;-51
2022/08/08 09:27:31;;;;;;;2.55;1.40;;;;;;;17.31;66.86;101440.50;4823137;29;20186;-51
2022/08/08 09:30:10;;;;;;;2.50;1.42;;;;;;;17.39;66.94;101446.41;4826309;29;20396;-50
2022/08/08 09:32:49;;;;;;;2.80;1.42;;;;;;;17.32;66.97;101451.13;4824723;29;20038;-49
2022/08/08 09:35:23;;;;;;;3.70;1.88;;;;;;;17.32;67.31;101448.41;4821051;29;20042;-48
2022/08/08 09:37:52;;;;;;;2.75;1.73;;;;;;;17.35;66.77;101447.09;4825881;29;20060;-48
2022/08/08 09:40:21;;;;;;;3.58;1.60;;;;;;;17.30;67.38;101449.69;4824371;29;20038;-50
2022/08/08 09:43:07;;;;;;;4.03;1.70;;;;;;;17.26;67.19;101448.50;4823745;29;20050;-51
2022/08/08 09:46:00;;;;;;;5.13;1.77;;;;;;;17.13;67.55;101442.28;4824703;29;20041;-50
2022/08/08 09:48:30;;;;;;;2.63;1.55;;;;;;;17.08;67.10;101444.84;4824855;29;20038;-51
2022/08/08 09:50:57;;;;;;;3.78;1.50;;;;;;;17.12;67.29;101442.50;4826047;29;20361;-51
2022/08/08 09:53:36;;;;;;;2.83;1.83;;;;;;;17.13;67.34;101444.16;4824649;29;20034;-50
2022/08/08 09:56:03;;;;;;;2.55;1.63;;;;;;;17.01;67.58;101444.16;4823688;29;20046;-51
2022/08/08 09:58:38;;;;;;;3.50;1.83;;;;;;;17.05;67.54;101442.63;4825405;29;20450;-48
2022/08/08 10:01:08;;;;;;;4.45;1.83;;;;;;;16.98;67.58;101444.59;4823325;29;20103;-49
2022/08/08 10:03:36;;;;;;;2.75;1.50;;;;;;;16.95;67.54;101447.78;4824137;29;20033;-51
2022/08/08 10:06:19;;;;;;;2.40;1.38;;;;;;;16.90;68.25;101450.38;4825410;29;20468;-51
2022/08/08 10:08:48;;;;;;;2.22;1.58;;;;;;;16.84;67.72;101444.00;4824346;29;20524;-50
2022/08/08 10:11:19;;;;;;;2.00;1.55;;;;;;;16.82;68.32;101448.00;4823559;29;20090;-51
2022/08/08 10:13:58;;;;;;;4.10;1.83;;;;;;;16.76;68.22;101444.34;4824673;29;20117;-47
2022/08/08 10:16:35;;;;;;;3.28;1.70;;;;;;;16.64;68.58;101440.75;4824854;29;20049;-51
2022/08/08 10:19:04;;;;;;;4.18;2.25;;;;;;;16.75;69.13;101444.56;4824398;29;20441;-54
2022/08/08 10:21:35;;;;;;;3.00;1.80;;;;;;;16.71;68.73;101441.53;4824395;29;20038;-48
2022/08/08 10:24:06;;;;;;;4.65;1.92;;;;;;;16.75;68.75;101441.88;4823959;29;20113;-50
2022/08/08 10:26:43;;;;;;;2.90;1.75;;;;;;;16.73;68.67;101439.41;4824667;29;20054;-50
2022/08/08 10:29:13;;;;;;;3.53;1.50;;;;;;;16.83;67.70;101439.66;4824500;29;20035;-51
2022/08/08 10:34:28;;;;;;;2.92;1.52;;;;;;;16.81;68.78;101446.34;4816149;29;20037;-50
2022/08/08 10:36:56;;;;;;;4.63;1.65;;;;;;;16.88;68.70;101441.69;4823273;29;20091;-51
2022/08/08 10:39:27;;;;;;;3.10;1.75;;;;;;;16.84;68.02;101445.91;4825405;29;20460;-50
2022/08/08 10:42:02;;;;;;;2.75;1.75;;;;;;;16.90;68.10;101447.66;4822910;29;20034;-51
2022/08/08 10:44:40;;;;;;;2.65;1.60;;;;;;;16.74;68.56;101445.63;4824564;29;20034;-49
2022/08/08 10:47:15;;;;;;;3.78;1.83;;;;;;;16.81;68.14;101449.06;4823739;29;20042;-47
2022/08/08 10:50:01;;;;;;;;;;;;;;;16.63;68.78;101444.53;4825092;29;20113;-51
2022/08/08 10:52:31;;;;;;;1.80;1.50;;;;;;;16.61;68.37;101452.06;4822979;29;19932;-50
2022/08/08 10:55:07;;;;;;;3.38;1.67;;;;;;;16.67;68.67;101444.91;4824560;29;20034;-50
2022/08/08 10:57:47;;;;;;;1.50;1.30;;;;;;;16.56;68.70;101455.44;4822884;29;20036;-51
2022/08/08 11:00:24;;;;;;;3.10;1.55;;;;;;;16.61;68.69;101449.34;4823861;29;20033;-51
2022/08/08 11:02:51;;;;;;;5.82;1.90;;;;;;;16.62;68.64;101449.09;4824574;29;20033;-47
2022/08/08 11:05:18;;;;;;;3.13;1.58;;;;;;;16.56;68.65;101450.03;4823741;29;20038;-47
2022/08/08 11:07:49;;;;;;;2.78;1.33;;;;;;;16.58;68.13;101447.91;4823938;29;20097;-48
2022/08/08 11:10:19;;;;;;;3.88;1.67;;;;;;;16.56;67.96;101447.34;4823374;29;20050;-51
2022/08/08 11:12:45;;;;;;;2.88;1.75;;;;;;;16.51;67.97;101447.19;4824640;29;20034;-51
2022/08/08 11:15:16;;;;;;;3.22;1.40;;;;;;;16.46;68.17;101441.66;4823367;29;20051;-51
2022/08/08 11:17:43;;;;;;;3.08;1.50;;;;;;;16.35;69.17;101445.16;4823369;29;20039;-51
2022/08/08 11:20:12;;;;;;;3.47;1.75;;;;;;;16.36;68.75;101450.31;4823481;29;20172;-51
2022/08/08 11:22:39;;;;;;;2.40;1.48;;;;;;;16.32;69.03;101448.28;4822751;29;20038;-50
2022/08/08 11:25:07;;;;;;;2.00;1.38;;;;;;;16.46;68.89;101447.06;4824171;29;20061;-51
2022/08/08 11:27:35;;;;;;;3.30;1.38;;;;;;;16.24;68.86;101441.34;4823156;29;20030;-51
2022/08/08 11:30:06;;;;;;;2.67;1.55;;;;;;;16.19;69.09;101449.31;4823115;29;20079;-51
2022/08/08 11:32:37;;;;;;;5.90;1.90;;;;;;;16.06;69.17;101442.22;4818496;29;20036;-51
2022/08/08 11:35:09;;;;;;;3.17;1.75;;;;;;;16.02;69.43;101442.88;4824030;29;20034;-51
2022/08/08 11:37:37;;;;;;;4.45;2.35;;;;;;;15.97;69.50;101448.97;4823910;29;20198;-50
2022/08/08 11:40:06;;;;;;;3.13;1.58;;;;;;;15.96;69.08;101443.81;4823642;29;20358;-50
2022/08/08 11:42:33;;;;;;;2.72;1.77;;;;;;;15.94;69.65;101440.50;4824233;29;20109;-47
2022/08/08 11:45:00;;;;;;;3.50;1.73;;;;;;;15.91;69.56;101441.78;4824023;29;20118;-50
2022/08/08 11:47:27;;;;;;;5.50;1.90;;;;;;;15.83;69.81;101445.63;4823140;29;20138;-51
2022/08/08 11:49:56;;;;;;;3.03;1.83;;;;;;;15.78;69.79;101445.47;4823732;29;20038;-49
2022/08/08 11:52:24;;;;;;;2.72;1.88;;;;;;;15.81;70.26;101447.69;4822184;29;20041;-49
2022/08/08 11:54:51;;;;;;;5.75;1.90;;;;;;;16.13;69.54;101449.41;4822180;29;20060;-47
2022/08/08 11:57:17;;;;;;;3.60;1.90;;;;;;;15.87;70.28;101451.38;4822427;29;20053;-50
2022/08/08 11:59:46;;;;;;;5.60;2.20;;;;;;;15.50;72.13;101459.44;4823646;29;20034;-50
2022/08/08 12:02:13;;;;;;;2.72;1.85;;;;;;;15.61;71.61;101451.66;4821706;29;20117;-51
2022/08/08 12:04:39;;;;;;;3.78;1.95;;;;;;;15.71;71.47;101446.56;4822981;29;20101;-51
2022/08/08 12:07:06;;;;;;;2.33;2.00;;;;;;;15.48;73.00;101458.00;4821368;29;20034;-50
2022/08/08 12:09:34;;;;;;;5.47;2.13;;;;;;;15.57;72.85;101451.28;4822264;29;20133;-51